Time;durP1;ratioP1;P1;durP2;ratioP2;P2;SDS_P1;SDS_P2;PMS_P1;PMS_P2;Temp;Humidity;BMP_temperature;BMP_pressure;BME280_temperature;BME280_humidity;BME280_pressure;Samples;Min_cycle;Max_cycle;Signal;HPM_P1;HPM_P2
2020/12/26 00:01:14;;;;;;;0.90;0.90;;;3.10;99.90;;;;;;5111827;28;20171;-65
2020/12/26 00:03:40;;;;;;;1.65;1.55;;;3.20;99.90;;;;;;5110580;28;20182;-65
2020/12/26 00:06:06;;;;;;;1.23;0.75;;;3.20;99.90;;;;;;5111900;28;20155;-65
2020/12/26 00:08:34;;;;;;;1.40;1.40;;;3.20;99.90;;;;;;5110347;28;20210;-65
2020/12/26 00:11:02;;;;;;;1.23;1.23;;;3.10;99.90;;;;;;5110275;28;20167;-66
2020/12/26 00:13:28;;;;;;;0.63;0.52;;;3.10;99.90;;;;;;5111730;28;20157;-65
2020/12/26 00:15:54;;;;;;;0.57;0.57;;;3.10;99.90;;;;;;5111626;28;20170;-65
2020/12/26 00:18:19;;;;;;;0.40;0.40;;;3.10;99.90;;;;;;5111387;28;20194;-66
2020/12/26 00:20:45;;;;;;;1.52;1.52;;;3.10;99.90;;;;;;5111447;28;20231;-65
2020/12/26 00:23:11;;;;;;;0.60;0.60;;;3.10;99.90;;;;;;5111520;28;20166;-65
2020/12/26 00:25:39;;;;;;;0.40;0.40;;;3.00;99.90;;;;;;5111502;28;20177;-66
2020/12/26 00:28:05;;;;;;;1.15;1.15;;;3.00;99.90;;;;;;5111299;28;20191;-65
2020/12/26 00:30:31;;;;;;;0.47;0.47;;;3.00;99.90;;;;;;5110342;28;20178;-65
2020/12/26 00:32:57;;;;;;;0.20;0.20;;;3.00;99.90;;;;;;5111299;28;20164;-65
2020/12/26 00:35:22;;;;;;;0.90;0.90;;;3.10;99.90;;;;;;5109818;28;20170;-66
2020/12/26 00:37:48;;;;;;;0.50;0.50;;;3.00;99.90;;;;;;5111012;28;20214;-66
2020/12/26 00:40:14;;;;;;;2.38;2.17;;;3.00;99.90;;;;;;5109735;28;20170;-65
2020/12/26 00:42:40;;;;;;;0.38;0.38;;;3.00;99.90;;;;;;5110942;28;20230;-65
2020/12/26 00:45:06;;;;;;;0.20;0.20;;;3.00;99.90;;;;;;5111002;28;20177;-66
2020/12/26 00:47:31;;;;;;;2.83;1.48;;;2.90;99.90;;;;;;5110919;28;20206;-65
2020/12/26 00:49:57;;;;;;;1.05;1.05;;;2.80;99.90;;;;;;5110953;28;20243;-65
2020/12/26 00:52:23;;;;;;;1.35;1.35;;;2.70;99.90;;;;;;5110847;28;20155;-66
2020/12/26 00:54:49;;;;;;;0.40;0.40;;;2.90;99.90;;;;;;5110795;28;20168;-65
2020/12/26 00:57:15;;;;;;;0.68;0.68;;;2.90;99.90;;;;;;5110811;28;20251;-66
2020/12/26 00:59:41;;;;;;;1.67;1.60;;;2.90;99.90;;;;;;5110738;28;20202;-66
2020/12/26 01:02:07;;;;;;;1.85;1.75;;;2.90;99.90;;;;;;5110625;28;20167;-65
2020/12/26 01:04:32;;;;;;;0.77;0.77;;;3.00;99.90;;;;;;5110705;28;20160;-65
2020/12/26 01:06:58;;;;;;;1.35;0.32;;;2.90;99.90;;;;;;5110542;28;20160;-66
2020/12/26 01:09:24;;;;;;;0.68;0.68;;;2.90;99.90;;;;;;5109198;28;20171;-66
2020/12/26 01:11:51;;;;;;;0.65;0.65;;;2.90;99.90;;;;;;5110548;28;20239;-65
2020/12/26 01:14:17;;;;;;;0.40;0.40;;;2.90;99.90;;;;;;5110488;28;20156;-66
2020/12/26 01:16:48;;;;;;;0.98;0.98;;;3.00;99.90;;;;;;5110445;28;20155;-66
2020/12/26 01:19:13;;;;;;;0.30;0.30;;;3.00;99.90;;;;;;5110287;28;20187;-66
2020/12/26 01:21:39;;;;;;;0.32;0.32;;;2.90;99.90;;;;;;5110330;28;20236;-66
2020/12/26 01:24:05;;;;;;;1.70;1.60;;;2.90;99.90;;;;;;5110243;28;20162;-65
2020/12/26 01:26:31;;;;;;;0.30;0.30;;;2.80;99.90;;;;;;5110315;28;20160;-66
2020/12/26 01:28:56;;;;;;;1.15;1.15;;;2.80;99.90;;;;;;5110125;28;20682;-66
2020/12/26 01:31:22;;;;;;;0.50;0.50;;;2.80;99.90;;;;;;5108869;28;20167;-66
2020/12/26 01:33:48;;;;;;;0.88;0.88;;;2.80;99.90;;;;;;5110205;28;20162;-65
2020/12/26 01:36:14;;;;;;;2.63;2.42;;;2.80;99.90;;;;;;5110186;28;20164;-66
2020/12/26 01:38:40;;;;;;;0.73;0.73;;;2.80;99.90;;;;;;5108455;28;20301;-65
2020/12/26 01:41:06;;;;;;;1.40;0.80;;;2.70;99.90;;;;;;5109834;28;20519;-65
2020/12/26 01:43:31;;;;;;;1.10;1.05;;;2.70;99.90;;;;;;5109741;28;20687;-66
2020/12/26 01:45:58;;;;;;;1.42;1.33;;;2.50;99.90;;;;;;5108641;28;20197;-66
2020/12/26 01:48:25;;;;;;;0.73;0.73;;;2.50;99.90;;;;;;5109881;28;20187;-66
2020/12/26 01:50:51;;;;;;;1.67;1.58;;;2.60;99.90;;;;;;5109897;28;20159;-65
2020/12/26 01:53:19;;;;;;;3.10;2.30;;;2.40;99.90;;;;;;5109887;28;20160;-66
2020/12/26 01:55:47;;;;;;;2.60;1.55;;;2.30;99.90;;;;;;5109770;28;20163;-65
2020/12/26 01:58:15;;;;;;;1.13;1.05;;;2.30;99.90;;;;;;5109635;28;20199;-66
2020/12/26 02:00:41;;;;;;;0.55;0.55;;;2.10;99.90;;;;;;5109712;28;20155;-65
2020/12/26 02:03:08;;;;;;;1.42;1.42;;;2.10;99.90;;;;;;5109725;28;20159;-65
2020/12/26 02:05:35;;;;;;;0.45;0.45;;;2.20;99.90;;;;;;5109679;28;20170;-65
2020/12/26 02:08:03;;;;;;;1.27;1.20;;;2.20;99.90;;;;;;5109584;28;20187;-65
2020/12/26 02:10:28;;;;;;;0.47;0.47;;;2.00;99.90;;;;;;5109642;28;20367;-65
2020/12/26 02:12:54;;;;;;;0.35;0.35;;;2.00;99.90;;;;;;5109529;28;20187;-65
2020/12/26 02:15:20;;;;;;;0.98;0.98;;;2.00;99.90;;;;;;5109576;28;20160;-66
2020/12/26 02:17:46;;;;;;;0.90;0.90;;;1.90;99.90;;;;;;5109450;28;20191;-65
2020/12/26 02:20:12;;;;;;;1.27;1.27;;;1.90;99.90;;;;;;5109554;28;20171;-65
2020/12/26 02:22:39;;;;;;;0.85;0.85;;;1.80;99.90;;;;;;5108215;28;20163;-65
2020/12/26 02:25:04;;;;;;;0.40;0.40;;;1.80;99.90;;;;;;5109485;28;20151;-65
2020/12/26 02:27:30;;;;;;;1.73;1.65;;;1.80;99.90;;;;;;5108040;28;20258;-65
2020/12/26 02:29:56;;;;;;;0.10;0.10;;;1.80;99.90;;;;;;5109492;28;20159;-66
2020/12/26 02:32:22;;;;;;;0.80;0.80;;;1.80;99.90;;;;;;5108083;28;20634;-66
2020/12/26 02:34:48;;;;;;;1.30;1.23;;;1.70;99.90;;;;;;5108096;28;20163;-65
2020/12/26 02:37:13;;;;;;;0.20;0.20;;;1.80;99.90;;;;;;5108071;28;20220;-66
2020/12/26 02:39:39;;;;;;;0.30;0.30;;;1.80;99.90;;;;;;5107969;28;20203;-65
2020/12/26 02:42:05;;;;;;;0.77;0.77;;;1.90;99.90;;;;;;5109280;28;20171;-66
2020/12/26 02:44:30;;;;;;;0.20;0.20;;;1.80;99.90;;;;;;5109302;28;20633;-66
2020/12/26 02:46:56;;;;;;;0.70;0.70;;;1.80;99.90;;;;;;5109270;28;20181;-66
2020/12/26 02:49:22;;;;;;;0.88;0.88;;;1.80;99.90;;;;;;5109294;28;20239;-65
2020/12/26 02:51:48;;;;;;;1.33;1.25;;;1.80;99.90;;;;;;5109291;28;20167;-66
2020/12/26 02:54:14;;;;;;;0.40;0.40;;;1.80;99.90;;;;;;5112664;28;20166;-65
2020/12/26 02:56:40;;;;;;;0.38;0.38;;;1.90;99.90;;;;;;5113127;28;20164;-65
2020/12/26 02:59:09;;;;;;;0.20;0.20;;;2.00;99.90;;;;;;5113069;28;20203;-65
2020/12/26 03:01:39;;;;;;;1.05;1.05;;;2.00;99.90;;;;;;5113028;28;20160;-65
2020/12/26 03:04:06;;;;;;;0.68;0.68;;;2.00;99.90;;;;;;5113014;28;20220;-65
2020/12/26 03:06:32;;;;;;;1.38;1.33;;;2.10;99.90;;;;;;5113008;28;20152;-65
2020/12/26 03:08:58;;;;;;;1.27;0.93;;;2.10;99.90;;;;;;5112733;28;20191;-65
2020/12/26 03:11:24;;;;;;;0.20;0.20;;;2.10;99.90;;;;;;5112834;28;20620;-65
2020/12/26 03:13:50;;;;;;;1.00;1.00;;;2.10;99.90;;;;;;5112813;28;20163;-65
2020/12/26 03:16:18;;;;;;;0.20;0.20;;;2.10;99.90;;;;;;5112914;28;20632;-65
2020/12/26 03:18:44;;;;;;;0.30;0.30;;;2.00;99.90;;;;;;5112651;28;20558;-66
2020/12/26 03:21:10;;;;;;;1.05;1.05;;;1.90;99.90;;;;;;5112670;28;20159;-66
2020/12/26 03:23:36;;;;;;;0.40;0.40;;;2.00;99.90;;;;;;5112681;28;20233;-66
2020/12/26 03:26:02;;;;;;;0.52;0.52;;;1.90;99.90;;;;;;5112514;28;20191;-65
2020/12/26 03:28:28;;;;;;;0.35;0.35;;;1.80;99.90;;;;;;5112582;28;20224;-66
2020/12/26 03:30:54;;;;;;;2.28;2.17;;;1.80;99.90;;;;;;5112566;28;20183;-66
2020/12/26 03:33:20;;;;;;;1.42;1.35;;;1.70;99.90;;;;;;5112426;28;20163;-66
2020/12/26 03:35:45;;;;;;;0.20;0.20;;;1.60;99.90;;;;;;5112476;28;20181;-65
2020/12/26 03:38:11;;;;;;;0.52;0.52;;;1.70;99.90;;;;;;5112226;28;20202;-66
2020/12/26 03:40:37;;;;;;;0.60;0.60;;;1.70;99.90;;;;;;5111076;28;20264;-65
2020/12/26 03:43:03;;;;;;;1.25;1.20;;;1.70;99.90;;;;;;5112187;28;20223;-66
2020/12/26 03:45:28;;;;;;;1.42;1.42;;;1.70;99.90;;;;;;5110735;28;20639;-65
2020/12/26 03:47:54;;;;;;;0.20;0.20;;;1.60;99.90;;;;;;5112091;28;20223;-65
2020/12/26 03:50:21;;;;;;;0.80;0.80;;;1.60;99.90;;;;;;5112093;28;20160;-65
2020/12/26 03:52:47;;;;;;;0.77;0.77;;;1.60;99.90;;;;;;5112026;28;20152;-66
2020/12/26 03:55:12;;;;;;;0.30;0.30;;;1.50;99.90;;;;;;5112035;28;20155;-66
2020/12/26 03:57:38;;;;;;;0.43;0.43;;;1.50;99.90;;;;;;5111968;28;20214;-65
2020/12/26 04:00:06;;;;;;;6.32;1.75;;;1.50;99.90;;;;;;5111778;28;20187;-65
2020/12/26 04:02:32;;;;;;;0.20;0.20;;;1.50;99.90;;;;;;5111796;28;20179;-65
2020/12/26 04:04:58;;;;;;;0.65;0.55;;;1.40;99.90;;;;;;5110554;28;20156;-66
2020/12/26 04:07:24;;;;;;;0.57;0.57;;;1.40;99.90;;;;;;5111712;28;20198;-65
2020/12/26 04:09:50;;;;;;;1.20;1.20;;;1.50;99.90;;;;;;5111492;28;20189;-66
2020/12/26 04:12:15;;;;;;;5.15;1.38;;;1.50;99.90;;;;;;5111727;28;20167;-65
2020/12/26 04:14:41;;;;;;;0.10;0.10;;;1.60;99.90;;;;;;5111627;28;20178;-65
2020/12/26 04:17:07;;;;;;;0.38;0.38;;;1.70;99.90;;;;;;5111535;28;20213;-65
2020/12/26 04:19:33;;;;;;;0.25;0.25;;;1.70;99.90;;;;;;5110179;28;20203;-65
2020/12/26 04:21:59;;;;;;;0.95;0.95;;;1.70;99.90;;;;;;5111464;28;20164;-66
2020/12/26 04:24:25;;;;;;;0.70;0.70;;;1.70;99.90;;;;;;5111533;28;20163;-65
2020/12/26 04:26:51;;;;;;;0.70;0.70;;;1.70;99.90;;;;;;5111317;28;20152;-65
2020/12/26 04:29:21;;;;;;;1.55;1.45;;;1.70;99.90;;;;;;5109963;28;20168;-65
2020/12/26 04:31:49;;;;;;;1.13;1.02;;;1.70;99.90;;;;;;5109922;28;20200;-65
2020/12/26 04:34:15;;;;;;;0.40;0.40;;;1.70;99.90;;;;;;5111210;28;20193;-66
2020/12/26 04:36:41;;;;;;;0.30;0.30;;;1.60;99.90;;;;;;5111229;28;20170;-66
2020/12/26 04:39:07;;;;;;;0.65;0.65;;;1.60;99.90;;;;;;5111016;28;20215;-65
2020/12/26 04:41:34;;;;;;;0.73;0.73;;;1.60;99.90;;;;;;5111018;28;20163;-66
2020/12/26 04:44:01;;;;;;;0.50;0.50;;;1.50;99.90;;;;;;5110764;28;20234;-65
2020/12/26 04:46:28;;;;;;;3.53;1.80;;;1.40;99.90;;;;;;5110980;28;20155;-65
2020/12/26 04:49:03;;;;;;;0.93;0.93;;;1.50;99.90;;;;;;5110677;28;20246;-65
2020/12/26 04:51:35;;;;;;;2.63;1.88;;;1.40;99.90;;;;;;5110975;28;20662;-66
2020/12/26 04:54:26;;;;;;;3.30;2.88;;;1.50;99.90;;;;;;5110839;28;20224;-65
2020/12/26 04:56:54;;;;;;;0.28;0.28;;;1.50;99.90;;;;;;5110645;28;20242;-65
2020/12/26 04:59:21;;;;;;;0.35;0.35;;;1.30;99.90;;;;;;5110573;28;20282;-66
2020/12/26 05:01:48;;;;;;;0.10;0.10;;;1.20;99.90;;;;;;5110632;28;20186;-66
2020/12/26 05:04:14;;;;;;;0.47;0.47;;;1.20;99.90;;;;;;5110667;28;20178;-65
2020/12/26 05:06:53;;;;;;;0.28;0.28;;;1.10;99.90;;;;;;5109256;28;20171;-65
2020/12/26 05:09:21;;;;;;;0.40;0.40;;;1.00;99.90;;;;;;5110436;28;20219;-65
2020/12/26 05:11:58;;;;;;;1.30;1.27;;;1.00;99.90;;;;;;5110497;28;20313;-64
2020/12/26 05:14:27;;;;;;;0.45;0.45;;;1.10;99.90;;;;;;5110330;28;20155;-64
2020/12/26 05:16:53;;;;;;;1.75;1.65;;;1.10;99.90;;;;;;5109821;28;20200;-65
2020/12/26 05:19:20;;;;;;;0.45;0.45;;;1.00;99.90;;;;;;5110070;28;20223;-65
2020/12/26 05:21:47;;;;;;;0.43;0.43;;;0.90;99.90;;;;;;5109050;28;20168;-65
2020/12/26 05:24:16;;;;;;;0.60;0.60;;;0.90;99.90;;;;;;5108982;28;20172;-65
2020/12/26 05:26:44;;;;;;;0.85;0.85;;;0.90;99.90;;;;;;5110160;28;20174;-65
2020/12/26 05:29:12;;;;;;;0.95;0.95;;;0.80;99.90;;;;;;5110231;28;20163;-65
2020/12/26 05:31:50;;;;;;;0.15;0.15;;;0.90;99.90;;;;;;5110187;28;20167;-65
2020/12/26 05:34:15;;;;;;;0.30;0.30;;;0.80;99.90;;;;;;5108724;28;20174;-65
2020/12/26 05:36:42;;;;;;;0.10;0.10;;;0.70;99.90;;;;;;5110214;28;20163;-65
2020/12/26 05:39:10;;;;;;;0.88;0.88;;;0.70;99.90;;;;;;5109727;28;20197;-65
2020/12/26 05:41:41;;;;;;;0.20;0.20;;;0.50;99.90;;;;;;5110088;28;20164;-65
2020/12/26 05:44:07;;;;;;;0.63;0.63;;;0.40;99.90;;;;;;5109835;28;20551;-65
2020/12/26 05:46:33;;;;;;;1.40;1.35;;;0.20;99.90;;;;;;5109953;28;20154;-64
2020/12/26 05:49:26;;;;;;;0.17;0.17;;;0.30;99.90;;;;;;5109741;28;20396;-66
2020/12/26 05:51:56;;;;;;;0.20;0.20;;;0.30;99.90;;;;;;5109834;28;20151;-66
2020/12/26 05:54:25;;;;;;;1.13;1.13;;;0.40;99.90;;;;;;5109784;28;20171;-65
2020/12/26 05:57:07;;;;;;;2.10;0.80;;;0.30;99.90;;;;;;5109643;28;20155;-65
2020/12/26 05:59:33;;;;;;;0.10;0.10;;;0.40;99.90;;;;;;5109755;28;20187;-65
2020/12/26 06:02:18;;;;;;;0.43;0.43;;;0.50;99.90;;;;;;5109721;28;20167;-65
2020/12/26 06:04:52;;;;;;;0.30;0.30;;;0.50;99.90;;;;;;5109691;28;20166;-64
2020/12/26 06:07:30;;;;;;;0.20;0.20;;;0.50;99.90;;;;;;5109675;28;20639;-65
2020/12/26 06:09:59;;;;;;;0.52;0.52;;;0.50;99.90;;;;;;5108435;28;20178;-65
2020/12/26 06:12:26;;;;;;;0.82;0.82;;;0.50;99.90;;;;;;5109584;28;20164;-65
2020/12/26 06:14:52;;;;;;;0.60;0.60;;;0.50;99.90;;;;;;5109494;28;20177;-65
2020/12/26 06:17:23;;;;;;;0.38;0.38;;;0.60;99.90;;;;;;5109487;28;20195;-65
2020/12/26 06:20:02;;;;;;;0.20;0.20;;;0.50;99.90;;;;;;5109202;28;20191;-65
2020/12/26 06:22:48;;;;;;;0.30;0.30;;;0.40;99.90;;;;;;5109462;28;20183;-65
2020/12/26 06:25:23;;;;;;;0.10;0.10;;;0.40;99.90;;;;;;5109621;28;20277;-66
2020/12/26 06:27:51;;;;;;;0.30;0.30;;;0.30;99.90;;;;;;5109250;28;20720;-65
2020/12/26 06:30:18;;;;;;;0.60;0.60;;;0.30;99.90;;;;;;5113621;28;20151;-65
2020/12/26 06:32:46;;;;;;;0.82;0.82;;;0.30;99.90;;;;;;5113721;28;20164;-65
2020/12/26 06:35:13;;;;;;;0.40;0.40;;;0.20;99.90;;;;;;5113588;28;20162;-65
2020/12/26 06:37:39;;;;;;;0.30;0.30;;;0.30;99.90;;;;;;5112047;28;20205;-65
2020/12/26 06:40:23;;;;;;;0.20;0.20;;;0.30;99.90;;;;;;5113255;28;20219;-65
2020/12/26 06:42:49;;;;;;;0.20;0.20;;;0.20;99.90;;;;;;5113267;28;20240;-65
2020/12/26 06:45:31;;;;;;;0.68;0.68;;;0.10;99.90;;;;;;5113337;28;20194;-65
2020/12/26 06:47:57;;;;;;;0.15;0.15;;;0.20;99.90;;;;;;5113183;28;20254;-65
2020/12/26 06:50:32;;;;;;;0.90;0.90;;;0.10;99.90;;;;;;5113260;28;20227;-65
2020/12/26 06:52:58;;;;;;;0.20;0.20;;;0.00;99.90;;;;;;5113266;28;20178;-64
2020/12/26 06:55:41;;;;;;;0.40;0.40;;;-0.20;99.90;;;;;;5113139;28;20170;-65
2020/12/26 06:58:11;;;;;;;0.30;0.30;;;-0.10;99.90;;;;;;5112843;28;20213;-65
2020/12/26 07:00:38;;;;;;;0.65;0.65;;;-0.10;99.90;;;;;;5113203;28;20166;-65
2020/12/26 07:03:17;;;;;;;0.65;0.65;;;-0.20;99.90;;;;;;5113069;28;20160;-66
2020/12/26 07:05:43;;;;;;;1.08;1.08;;;-0.40;99.90;;;;;;5113004;28;20163;-65
2020/12/26 07:08:34;;;;;;;0.30;0.30;;;-0.40;99.90;;;;;;5112845;28;20217;-65
2020/12/26 07:11:22;;;;;;;0.65;0.65;;;-0.40;99.90;;;;;;5111616;28;20179;-65
2020/12/26 07:13:50;;;;;;;0.82;0.82;;;-0.30;99.90;;;;;;5112836;28;20152;-65
2020/12/26 07:16:41;;;;;;;0.82;0.82;;;-0.10;99.90;;;;;;5111325;28;20533;-65
2020/12/26 07:19:41;;;;;;;0.20;0.20;;;0.00;99.90;;;;;;5112419;28;20277;-65
2020/12/26 07:22:17;;;;;;;0.20;0.20;;;0.00;99.90;;;;;;5112738;28;20152;-65
2020/12/26 07:24:45;;;;;;;2.92;1.95;;;0.10;99.90;;;;;;5112497;28;20168;-65
2020/12/26 07:27:17;;;;;;;0.20;0.20;;;0.10;99.90;;;;;;5112422;28;20216;-65
2020/12/26 07:29:55;;;;;;;0.77;0.75;;;0.10;99.90;;;;;;5111126;28;20190;-65
2020/12/26 07:32:36;;;;;;;0.40;0.40;;;0.00;99.90;;;;;;5112459;28;20170;-65
2020/12/26 07:35:14;;;;;;;0.22;0.22;;;0.10;99.90;;;;;;5112318;28;20511;-65
2020/12/26 07:37:41;;;;;;;0.30;0.30;;;0.10;99.90;;;;;;5112310;28;20199;-65
2020/12/26 07:40:08;;;;;;;0.63;0.63;;;0.30;99.90;;;;;;5111799;28;20187;-65
2020/12/26 07:42:35;;;;;;;0.50;0.50;;;0.40;99.90;;;;;;5112158;28;20218;-65
2020/12/26 07:45:15;;;;;;;0.40;0.40;;;0.50;99.90;;;;;;5112202;28;20168;-65
2020/12/26 07:47:43;;;;;;;0.25;0.25;;;0.50;99.90;;;;;;5112085;28;20197;-66
2020/12/26 07:50:10;;;;;;;0.43;0.43;;;0.60;99.90;;;;;;5112056;28;20195;-65
2020/12/26 07:52:36;;;;;;;0.20;0.20;;;0.70;99.90;;;;;;5110850;28;20186;-65
2020/12/26 07:55:04;;;;;;;0.38;0.38;;;0.70;99.90;;;;;;5110814;28;20171;-65
2020/12/26 07:57:30;;;;;;;0.75;0.75;;;0.80;99.90;;;;;;5111912;28;20202;-65
2020/12/26 07:59:57;;;;;;;0.25;0.25;;;0.90;99.90;;;;;;5110590;28;20202;-65
2020/12/26 08:02:23;;;;;;;0.20;0.20;;;1.00;99.90;;;;;;5111899;28;20156;-65
2020/12/26 08:04:49;;;;;;;0.10;0.10;;;1.10;99.90;;;;;;5111927;28;20167;-65
2020/12/26 08:07:18;;;;;;;0.15;0.15;;;1.20;99.90;;;;;;5111738;28;20187;-65
2020/12/26 08:09:50;;;;;;;0.20;0.20;;;1.10;99.90;;;;;;5111762;28;20520;-66
2020/12/26 08:12:17;;;;;;;0.65;0.65;;;1.30;99.90;;;;;;5111697;28;20148;-65
2020/12/26 08:14:43;;;;;;;0.10;0.10;;;1.40;99.90;;;;;;5111728;28;20190;-65
2020/12/26 08:17:12;;;;;;;0.10;0.10;;;1.80;99.90;;;;;;5111248;28;20191;-65
2020/12/26 08:19:38;;;;;;;0.10;0.10;;;2.90;99.90;;;;;;5111538;28;20324;-65
2020/12/26 08:22:04;;;;;;;0.20;0.20;;;3.50;99.90;;;;;;5111302;28;20165;-65
2020/12/26 08:24:30;;;;;;;0.50;0.50;;;3.90;99.90;;;;;;5111658;28;20162;-66
2020/12/26 08:26:57;;;;;;;0.10;0.10;;;3.60;99.90;;;;;;5111400;28;20152;-65
2020/12/26 08:29:29;;;;;;;0.38;0.38;;;4.20;99.90;;;;;;5111383;28;20219;-66
2020/12/26 08:32:02;;;;;;;0.38;0.38;;;5.40;99.90;;;;;;5111316;28;20156;-66
2020/12/26 08:34:47;;;;;;;0.10;0.10;;;6.60;99.90;;;;;;5111236;28;20163;-66
2020/12/26 08:37:22;;;;;;;0.00;0.00;;;7.30;99.90;;;;;;5109947;28;20220;-66
2020/12/26 08:39:56;;;;;;;0.30;0.30;;;8.70;99.90;;;;;;5109788;28;20262;-66
2020/12/26 08:42:23;;;;;;;0.70;0.70;;;9.40;99.90;;;;;;5110790;28;20203;-65
2020/12/26 08:44:49;;;;;;;3.03;1.75;;;11.00;99.90;;;;;;5110805;28;20154;-65
2020/12/26 08:47:31;;;;;;;0.55;0.55;;;11.50;99.90;;;;;;5110765;28;20210;-65
2020/12/26 08:49:58;;;;;;;0.32;0.20;;;11.80;99.90;;;;;;5110373;28;20163;-66
2020/12/26 08:52:25;;;;;;;0.35;0.35;;;10.80;99.90;;;;;;5110766;28;20152;-66
2020/12/26 08:55:05;;;;;;;0.50;0.50;;;10.70;99.90;;;;;;5110680;28;20219;-65
2020/12/26 08:57:31;;;;;;;0.75;0.75;;;9.40;99.90;;;;;;5110701;28;20191;-65
2020/12/26 09:00:20;;;;;;;1.80;1.67;;;8.90;99.90;;;;;;5110681;28;20187;-65
2020/12/26 09:02:47;;;;;;;0.47;0.47;;;9.80;99.90;;;;;;5110563;28;20186;-66
2020/12/26 09:05:24;;;;;;;0.30;0.30;;;11.50;99.90;;;;;;5109291;28;20231;-65
2020/12/26 09:08:07;;;;;;;0.32;0.32;;;12.40;99.90;;;;;;5109318;28;20229;-66
2020/12/26 09:10:38;;;;;;;0.32;0.32;;;12.70;99.90;;;;;;5109224;28;20191;-65
2020/12/26 09:13:13;;;;;;;0.00;0.00;;;13.10;99.90;;;;;;5110391;28;20214;-66
2020/12/26 09:15:50;;;;;;;0.38;0.38;;;13.90;99.90;;;;;;5110558;28;20151;-66
2020/12/26 09:18:21;;;;;;;1.23;1.13;;;14.20;99.90;;;;;;5108869;28;20220;-66
2020/12/26 09:20:53;;;;;;;0.30;0.30;;;15.20;99.90;;;;;;5110282;28;20242;-66
2020/12/26 09:23:20;;;;;;;0.80;0.75;;;14.20;99.90;;;;;;5110320;28;20259;-66
2020/12/26 09:25:47;;;;;;;0.93;0.93;;;14.40;99.90;;;;;;5109153;28;20163;-66
2020/12/26 09:28:14;;;;;;;0.22;0.22;;;12.90;99.90;;;;;;5110008;28;20191;-65
2020/12/26 09:30:40;;;;;;;0.77;0.77;;;12.60;99.90;;;;;;5110177;28;20151;-65
2020/12/26 09:33:06;;;;;;;0.65;0.65;;;11.80;99.90;;;;;;5110153;28;20157;-65
2020/12/26 09:35:32;;;;;;;0.65;0.65;;;11.00;99.90;;;;;;5109953;28;20228;-65
2020/12/26 09:37:58;;;;;;;0.40;0.40;;;10.90;99.90;;;;;;5110041;28;20187;-65
2020/12/26 09:40:33;;;;;;;0.10;0.10;;;10.70;99.90;;;;;;5109967;28;20183;-65
2020/12/26 09:42:59;;;;;;;0.47;0.47;;;10.00;99.90;;;;;;5109756;28;20233;-65
2020/12/26 09:45:26;;;;;;;0.30;0.30;;;9.10;99.90;;;;;;5109767;28;20175;-65
2020/12/26 09:47:55;;;;;;;0.20;0.20;;;9.20;99.90;;;;;;5109859;28;20179;-65
2020/12/26 09:50:21;;;;;;;0.35;0.35;;;10.00;99.90;;;;;;5108441;28;20187;-65
2020/12/26 09:52:47;;;;;;;0.00;0.00;;;10.80;99.90;;;;;;5109924;28;20156;-65
2020/12/26 09:55:13;;;;;;;0.43;0.43;;;11.60;99.90;;;;;;5109782;28;20164;-65
2020/12/26 09:57:39;;;;;;;0.50;0.50;;;11.40;99.90;;;;;;5109695;28;20191;-65
2020/12/26 10:00:07;;;;;;;0.20;0.20;;;10.60;99.90;;;;;;5109633;28;20187;-65
2020/12/26 10:02:34;;;;;;;0.90;0.90;;;10.60;99.90;;;;;;5109523;28;20175;-65
2020/12/26 10:05:04;;;;;;;0.60;0.52;;;11.40;99.90;;;;;;5109508;28;20166;-65
2020/12/26 10:07:31;;;;;;;0.20;0.20;;;11.50;99.90;;;;;;5108178;28;20262;-65
2020/12/26 10:09:57;;;;;;;0.40;0.40;;;12.10;99.90;;;;;;5109726;28;20163;-66
2020/12/26 10:12:23;;;;;;;0.70;0.70;;;12.70;99.90;;;;;;5109514;28;20300;-66
2020/12/26 10:14:49;;;;;;;0.17;0.17;;;12.70;99.90;;;;;;5109546;28;20160;-66
2020/12/26 10:17:15;;;;;;;0.10;0.10;;;12.40;99.90;;;;;;5108164;28;20687;-66
2020/12/26 10:19:40;;;;;;;0.20;0.20;;;12.50;99.90;;;;;;5109368;28;20222;-65
2020/12/26 10:22:06;;;;;;;0.30;0.30;;;11.80;99.90;;;;;;5109447;28;20159;-66
2020/12/26 10:24:32;;;;;;;0.10;0.10;;;11.70;99.90;;;;;;5109371;28;20235;-65
2020/12/26 10:26:58;;;;;;;0.10;0.10;;;11.90;99.90;;;;;;5109526;28;20160;-65
2020/12/26 10:29:24;;;;;;;0.13;0.13;;;12.40;99.90;;;;;;5107882;28;20238;-65
2020/12/26 10:31:50;;;;;;;0.20;0.20;;;12.90;99.90;;;;;;5109459;28;20206;-65
2020/12/26 10:34:17;;;;;;;0.10;0.10;;;12.20;99.90;;;;;;5109215;28;20164;-66
2020/12/26 10:36:44;;;;;;;1.77;0.70;;;11.60;99.90;;;;;;5109269;28;20163;-66
2020/12/26 10:39:10;;;;;;;0.43;0.43;;;11.60;99.90;;;;;;5109110;28;20211;-66
2020/12/26 10:41:35;;;;;;;0.17;0.17;;;11.70;99.90;;;;;;5109191;28;20164;-65
2020/12/26 10:44:01;;;;;;;0.15;0.15;;;12.60;99.90;;;;;;5109095;28;20270;-65
2020/12/26 10:46:28;;;;;;;0.20;0.20;;;13.10;99.90;;;;;;5109066;28;20213;-66
2020/12/26 10:48:54;;;;;;;0.20;0.20;;;14.10;99.90;;;;;;5109089;28;20194;-66
2020/12/26 10:51:20;;;;;;;0.45;0.45;;;13.90;99.90;;;;;;5109004;28;20151;-66
2020/12/26 10:53:46;;;;;;;0.52;0.43;;;13.20;99.90;;;;;;5109166;28;20160;-66
2020/12/26 10:56:12;;;;;;;0.50;0.43;;;13.10;99.90;;;;;;5109241;28;20163;-66
2020/12/26 10:58:37;;;;;;;0.40;0.40;;;12.80;99.90;;;;;;5108813;28;20203;-65
2020/12/26 11:01:03;;;;;;;0.10;0.10;;;11.80;99.90;;;;;;5109155;28;20185;-66
2020/12/26 11:03:29;;;;;;;0.57;0.57;;;11.10;99.90;;;;;;5109120;28;20163;-65
2020/12/26 11:05:55;;;;;;;0.10;0.10;;;11.50;99.90;;;;;;5108747;28;20159;-66
2020/12/26 11:08:21;;;;;;;0.22;0.22;;;11.60;99.90;;;;;;5108994;28;20194;-66
2020/12/26 11:10:47;;;;;;;0.28;0.28;;;11.20;99.90;;;;;;5109211;28;20219;-66
2020/12/26 11:13:12;;;;;;;0.10;0.10;;;11.20;99.90;;;;;;5109177;28;20159;-65
2020/12/26 11:15:38;;;;;;;0.28;0.28;;;11.10;99.90;;;;;;5112807;28;20182;-66
2020/12/26 11:18:04;;;;;;;0.52;0.52;;;11.30;99.90;;;;;;5112559;28;20212;-66
2020/12/26 11:20:30;;;;;;;0.63;0.63;;;9.40;99.90;;;;;;5111105;28;20639;-66
2020/12/26 11:22:56;;;;;;;2.20;0.40;;;9.90;99.90;;;;;;5112661;28;20170;-66
2020/12/26 11:25:21;;;;;;;0.10;0.10;;;10.70;99.90;;;;;;5112595;28;20177;-65
2020/12/26 11:27:47;;;;;;;0.00;0.00;;;9.50;99.90;;;;;;5112517;28;20202;-65
2020/12/26 11:30:13;;;;;;;0.00;0.00;;;7.60;99.90;;;;;;5112450;28;20636;-66
2020/12/26 11:32:39;;;;;;;0.10;0.10;;;7.70;99.90;;;;;;5112389;28;20193;-66
2020/12/26 11:35:05;;;;;;;0.10;0.10;;;8.00;99.90;;;;;;5112287;28;20186;-65
2020/12/26 11:37:31;;;;;;;0.17;0.17;;;6.90;99.90;;;;;;5112451;28;20191;-66
2020/12/26 11:39:57;;;;;;;0.05;0.05;;;6.60;99.90;;;;;;5112216;28;20198;-65
2020/12/26 11:42:23;;;;;;;0.13;0.13;;;6.60;99.90;;;;;;5111978;28;20221;-65
2020/12/26 11:44:49;;;;;;;0.10;0.10;;;6.30;99.90;;;;;;5112161;28;20190;-66
2020/12/26 11:47:15;;;;;;;0.40;0.20;;;6.50;99.90;;;;;;5112148;28;20195;-66
2020/12/26 11:49:40;;;;;;;0.10;0.10;;;6.80;99.90;;;;;;5112118;28;20658;-66
2020/12/26 11:52:06;;;;;;;0.00;0.00;;;6.40;99.90;;;;;;5110647;28;20175;-66
2020/12/26 11:54:32;;;;;;;0.10;0.10;;;6.20;99.90;;;;;;5111936;28;20171;-66
2020/12/26 11:56:59;;;;;;;0.10;0.10;;;6.40;99.90;;;;;;5111815;28;20155;-66
2020/12/26 11:59:25;;;;;;;0.28;0.25;;;6.40;99.90;;;;;;5110288;28;20270;-66
2020/12/26 12:01:55;;;;;;;0.10;0.10;;;6.50;99.90;;;;;;5111920;28;20156;-65
2020/12/26 12:04:22;;;;;;;0.17;0.17;;;6.00;99.90;;;;;;5111664;28;20147;-65
2020/12/26 12:06:48;;;;;;;0.10;0.10;;;6.00;99.90;;;;;;5111607;28;20158;-66
2020/12/26 12:09:14;;;;;;;0.10;0.10;;;6.10;99.90;;;;;;5110459;28;20216;-65
2020/12/26 12:11:40;;;;;;;0.10;0.10;;;6.20;99.90;;;;;;5111715;28;20172;-65
2020/12/26 12:14:06;;;;;;;0.10;0.10;;;6.20;99.90;;;;;;5110303;28;20217;-66
2020/12/26 12:16:32;;;;;;;0.10;0.10;;;6.40;99.90;;;;;;5111521;28;20628;-66
2020/12/26 12:18:58;;;;;;;0.00;0.00;;;6.50;99.90;;;;;;5110110;28;20575;-66
2020/12/26 12:21:23;;;;;;;0.10;0.10;;;6.10;99.90;;;;;;5111326;28;20601;-66
2020/12/26 12:23:49;;;;;;;0.10;0.10;;;6.20;99.90;;;;;;5111600;28;20171;-66
2020/12/26 12:26:25;;;;;;;0.10;0.10;;;6.10;99.90;;;;;;5110186;28;20156;-66
2020/12/26 12:28:53;;;;;;;0.10;0.10;;;6.00;99.90;;;;;;5109832;28;20198;-66
2020/12/26 12:31:23;;;;;;;0.10;0.10;;;6.70;99.90;;;;;;5111218;28;20179;-66
2020/12/26 12:33:50;;;;;;;0.10;0.10;;;6.20;99.90;;;;;;5111162;28;20160;-65
2020/12/26 12:36:16;;;;;;;0.10;0.10;;;5.50;99.90;;;;;;5111192;28;20155;-65
2020/12/26 12:38:42;;;;;;;0.10;0.10;;;4.90;99.90;;;;;;5111087;28;20207;-64
2020/12/26 12:41:08;;;;;;;0.20;0.20;;;4.60;99.90;;;;;;5109715;28;20172;-64
2020/12/26 12:43:35;;;;;;;0.20;0.20;;;4.50;99.90;;;;;;5110761;28;20242;-66
2020/12/26 12:46:01;;;;;;;0.10;0.10;;;4.30;99.90;;;;;;5110795;28;20211;-66
2020/12/26 12:48:27;;;;;;;0.30;0.30;;;4.40;99.90;;;;;;5110918;28;20203;-66
2020/12/26 12:50:53;;;;;;;0.10;0.10;;;4.30;99.90;;;;;;5110728;28;20178;-66
2020/12/26 12:53:19;;;;;;;0.20;0.20;;;4.30;99.90;;;;;;5110978;28;20169;-66
2020/12/26 12:55:45;;;;;;;1.33;1.27;;;4.20;99.90;;;;;;5110754;28;20631;-66
2020/12/26 12:58:10;;;;;;;0.10;0.10;;;4.30;99.90;;;;;;5110582;28;20195;-66
2020/12/26 13:00:36;;;;;;;0.10;0.10;;;4.20;99.90;;;;;;5110626;28;20162;-66